Time;durP1;ratioP1;P1;durP2;ratioP2;P2;SDS_P1;SDS_P2;PMS_P1;PMS_P2;Temp;Humidity;BMP_temperature;BMP_pressure;BME280_temperature;BME280_humidity;BME280_pressure;Samples;Min_cycle;Max_cycle;Signal;HPM_P1;HPM_P2
2022/05/17 00:00:13;;;;;;;1.63;1.43;;;20.10;99.90;;;;;;5020694;28;20457;-80
2022/05/17 00:02:42;;;;;;;3.30;1.80;;;20.10;99.90;;;;;;5023955;28;20464;-79
2022/05/17 00:05:10;;;;;;;1.80;1.70;;;20.10;99.90;;;;;;5021376;28;20484;-80
2022/05/17 00:07:39;;;;;;;2.73;1.80;;;20.00;99.90;;;;;;5027951;28;20463;-79
2022/05/17 00:10:09;;;;;;;4.00;1.83;;;20.00;99.90;;;;;;5019813;28;20453;-80
2022/05/17 00:12:37;;;;;;;4.50;1.50;;;19.90;99.90;;;;;;5020346;28;20508;-80
2022/05/17 00:15:07;;;;;;;2.20;1.40;;;19.90;99.90;;;;;;5013891;28;20494;-80
2022/05/17 00:17:36;;;;;;;2.70;2.30;;;19.90;99.90;;;;;;5018177;28;20471;-80
2022/05/17 00:20:05;;;;;;;5.30;1.90;;;19.90;99.90;;;;;;5019812;28;20511;-81
2022/05/17 00:22:33;;;;;;;2.70;1.73;;;19.90;99.90;;;;;;5019226;28;20465;-79
2022/05/17 00:25:02;;;;;;;3.30;1.77;;;19.80;99.90;;;;;;5019913;28;20461;-80
2022/05/17 00:27:31;;;;;;;5.27;2.10;;;19.80;99.90;;;;;;5014853;28;20527;-80
2022/05/17 00:30:00;;;;;;;1.83;1.73;;;19.80;99.90;;;;;;5016912;28;20495;-81
2022/05/17 00:32:28;;;;;;;1.87;1.67;;;19.70;99.90;;;;;;5026102;28;20472;-80
2022/05/17 00:34:56;;;;;;;2.30;1.43;;;19.70;99.90;;;;;;5016376;28;20469;-80
2022/05/17 00:37:24;;;;;;;5.67;2.03;;;19.70;99.90;;;;;;5025661;28;21034;-80
2022/05/17 00:39:52;;;;;;;4.50;1.90;;;19.70;99.90;;;;;;5018265;28;20483;-80
2022/05/17 00:42:21;;;;;;;2.37;1.50;;;19.70;99.90;;;;;;5022454;28;20521;-80
2022/05/17 00:44:51;;;;;;;1.60;1.50;;;19.70;99.90;;;;;;5023042;28;20465;-80
2022/05/17 00:47:24;;;;;;;2.40;1.50;;;19.60;99.90;;;;;;5035680;28;20472;-80
2022/05/17 00:49:57;;;;;;;2.50;1.80;;;19.60;99.90;;;;;;5022193;28;21010;-80
2022/05/17 00:52:29;;;;;;;3.00;2.13;;;19.60;99.90;;;;;;5022024;28;20830;-80
2022/05/17 00:55:02;;;;;;;5.10;1.90;;;19.60;99.90;;;;;;5020385;28;20976;-79
2022/05/17 00:57:35;;;;;;;1.70;1.60;;;19.50;99.90;;;;;;5028237;28;20460;-81
2022/05/17 01:00:11;;;;;;;2.27;1.70;;;19.50;99.90;;;;;;5022496;28;20893;-80
2022/05/17 01:02:39;;;;;;;1.60;1.50;;;19.50;99.90;;;;;;5021469;28;20456;-80
2022/05/17 01:05:08;;;;;;;4.20;2.73;;;19.50;99.90;;;;;;5015344;28;21166;-81
2022/05/17 01:07:41;;;;;;;2.13;1.93;;;19.40;99.90;;;;;;5024426;28;20492;-80
2022/05/17 01:10:11;;;;;;;3.13;1.30;;;19.40;99.90;;;;;;5025107;28;20452;-80
2022/05/17 01:12:41;;;;;;;2.23;1.50;;;19.40;99.90;;;;;;5011051;28;21043;-80
2022/05/17 01:15:12;;;;;;;2.07;1.50;;;19.30;99.90;;;;;;5016746;28;20477;-81
2022/05/17 01:17:41;;;;;;;3.40;1.50;;;19.40;99.90;;;;;;5023553;28;20865;-81
2022/05/17 01:20:13;;;;;;;2.90;1.83;;;19.40;99.90;;;;;;5013921;28;20484;-80
2022/05/17 01:22:42;;;;;;;1.60;1.50;;;19.30;99.90;;;;;;5020499;28;21904;-80
2022/05/17 01:25:11;;;;;;;4.67;2.17;;;19.30;99.90;;;;;;5014390;28;20995;-79
2022/05/17 01:27:44;;;;;;;1.77;1.60;;;19.30;99.90;;;;;;5021170;28;20476;-80
2022/05/17 01:30:18;;;;;;;3.87;1.43;;;19.30;99.90;;;;;;5014988;28;20445;-79
2022/05/17 01:32:46;;;;;;;2.80;1.37;;;19.20;99.90;;;;;;5019234;28;20456;-78
2022/05/17 01:35:14;;;;;;;2.43;1.53;;;19.30;99.90;;;;;;5017447;28;20517;-80
2022/05/17 01:37:44;;;;;;;2.90;1.73;;;19.20;99.90;;;;;;5025035;28;20498;-78
2022/05/17 01:40:13;;;;;;;1.50;1.40;;;19.20;99.90;;;;;;5012028;28;20985;-79
2022/05/17 01:42:41;;;;;;;1.60;1.50;;;19.20;99.90;;;;;;5015372;28;20460;-79
2022/05/17 01:45:11;;;;;;;3.20;2.00;;;19.20;99.90;;;;;;5009719;28;21208;-80
2022/05/17 01:47:40;;;;;;;1.97;1.70;;;19.20;99.90;;;;;;5021683;28;20470;-79
2022/05/17 01:50:09;;;;;;;2.83;1.67;;;19.20;99.90;;;;;;5031443;28;20462;-80
2022/05/17 01:52:37;;;;;;;1.83;1.60;;;19.20;99.90;;;;;;5025520;28;20467;-79
2022/05/17 01:55:08;;;;;;;3.83;1.63;;;19.10;99.90;;;;;;5018384;28;20515;-78
2022/05/17 01:57:36;;;;;;;2.07;1.47;;;19.10;99.90;;;;;;5025669;28;20542;-79
2022/05/17 02:00:08;;;;;;;1.83;1.67;;;19.00;99.90;;;;;;5011038;28;21014;-79
2022/05/17 02:02:36;;;;;;;3.17;2.00;;;19.00;99.90;;;;;;5015121;28;20469;-79
2022/05/17 02:05:05;;;;;;;3.87;2.20;;;19.00;99.90;;;;;;5017839;28;20457;-79
2022/05/17 02:07:34;;;;;;;2.10;1.90;;;19.00;99.90;;;;;;5017691;28;20961;-79
2022/05/17 02:10:02;;;;;;;2.30;1.87;;;19.00;99.90;;;;;;5024187;28;20522;-79
2022/05/17 02:12:32;;;;;;;2.23;1.80;;;18.90;99.90;;;;;;5019413;28;20453;-79
2022/05/17 02:15:00;;;;;;;1.80;1.50;;;18.90;99.90;;;;;;5013723;28;20862;-79
2022/05/17 02:17:28;;;;;;;2.60;1.40;;;19.00;99.90;;;;;;5011656;28;20474;-80
2022/05/17 02:19:56;;;;;;;2.23;2.10;;;19.00;99.90;;;;;;5017946;28;20486;-80
2022/05/17 02:22:24;;;;;;;2.43;1.73;;;18.90;99.90;;;;;;5015313;28;20447;-80
2022/05/17 02:24:52;;;;;;;1.83;1.57;;;18.90;99.90;;;;;;5015900;28;21212;-81
2022/05/17 02:27:21;;;;;;;2.90;1.87;;;18.90;99.90;;;;;;5016679;28;20461;-79
2022/05/17 02:29:50;;;;;;;3.10;2.17;;;18.90;99.90;;;;;;5015287;28;20464;-79
2022/05/17 02:32:18;;;;;;;2.23;1.60;;;18.90;99.90;;;;;;5020259;28;20469;-79
2022/05/17 02:34:46;;;;;;;1.90;1.73;;;18.80;99.90;;;;;;5025709;28;20487;-79
2022/05/17 02:37:16;;;;;;;2.00;1.40;;;18.80;99.90;;;;;;5012143;28;20460;-79
2022/05/17 02:39:45;;;;;;;1.90;1.70;;;18.80;99.90;;;;;;5015107;28;20476;-79
2022/05/17 02:42:13;;;;;;;3.53;1.50;;;18.70;99.90;;;;;;5011597;28;20462;-80
2022/05/17 02:44:41;;;;;;;1.70;1.57;;;18.70;99.90;;;;;;5013267;28;20460;-80
2022/05/17 02:47:12;;;;;;;2.47;1.60;;;18.80;99.90;;;;;;5010525;28;20488;-80
2022/05/17 02:49:43;;;;;;;5.03;1.60;;;18.90;99.90;;;;;;5012246;28;20527;-80
2022/05/17 02:52:12;;;;;;;2.83;1.90;;;18.80;99.90;;;;;;5021063;28;20460;-80
2022/05/17 02:54:41;;;;;;;2.60;2.40;;;18.80;99.90;;;;;;5005561;28;20473;-80
2022/05/17 02:57:09;;;;;;;3.23;1.63;;;18.80;99.90;;;;;;5017966;28;20958;-80
2022/05/17 02:59:38;;;;;;;2.63;1.50;;;18.80;99.90;;;;;;5013189;28;20488;-78
2022/05/17 03:02:06;;;;;;;1.70;1.40;;;18.80;99.90;;;;;;5011415;28;20514;-79
2022/05/17 03:04:36;;;;;;;2.00;1.33;;;18.70;99.90;;;;;;5021488;28;20521;-80
2022/05/17 03:07:04;;;;;;;3.37;1.90;;;18.70;99.90;;;;;;5013530;28;20488;-79
2022/05/17 03:09:32;;;;;;;1.83;1.33;;;18.70;99.90;;;;;;5015657;28;20456;-79
2022/05/17 03:12:02;;;;;;;1.70;1.60;;;18.70;99.90;;;;;;5010289;28;20454;-79
2022/05/17 03:14:31;;;;;;;1.87;1.70;;;18.60;99.90;;;;;;5017959;28;20460;-80
2022/05/17 03:16:59;;;;;;;2.23;1.30;;;18.60;99.90;;;;;;5017872;28;21085;-80
2022/05/17 03:19:27;;;;;;;3.27;1.97;;;18.60;99.90;;;;;;5017979;28;20495;-79
2022/05/17 03:21:57;;;;;;;5.83;1.47;;;18.60;99.90;;;;;;5023866;28;20975;-79
2022/05/17 03:24:25;;;;;;;2.43;1.70;;;18.50;99.90;;;;;;5019217;28;20463;-79
2022/05/17 03:27:13;;;;;;;1.43;1.33;;;18.50;99.90;;;;;;5018048;28;20511;-79
2022/05/17 03:29:41;;;;;;;1.73;1.60;;;18.50;99.90;;;;;;5025396;28;20457;-80
2022/05/17 03:32:10;;;;;;;2.97;1.80;;;18.50;99.90;;;;;;5018574;28;20462;-80
2022/05/17 03:34:39;;;;;;;2.23;1.77;;;18.50;99.90;;;;;;5024786;28;20544;-79
2022/05/17 03:37:08;;;;;;;1.87;1.50;;;18.50;99.90;;;;;;5021962;28;20826;-80
2022/05/17 03:39:37;;;;;;;1.87;1.77;;;18.50;99.90;;;;;;5021739;28;20448;-80
2022/05/17 03:42:09;;;;;;;1.83;1.70;;;18.40;99.90;;;;;;5021834;28;20457;-81
2022/05/17 03:44:38;;;;;;;1.70;1.60;;;18.50;99.90;;;;;;5026964;28;20452;-81
2022/05/17 03:47:08;;;;;;;1.93;1.40;;;18.40;99.90;;;;;;5029439;28;20486;-79
2022/05/17 03:49:38;;;;;;;2.30;1.57;;;18.40;99.90;;;;;;5028006;28;20470;-80
2022/05/17 03:52:10;;;;;;;2.53;2.00;;;18.30;99.90;;;;;;5023728;28;20456;-80
2022/05/17 03:54:38;;;;;;;2.93;1.70;;;18.40;99.90;;;;;;5018302;28;20467;-79
2022/05/17 03:57:08;;;;;;;1.53;1.43;;;18.40;99.90;;;;;;5019913;28;20507;-79
2022/05/17 03:59:39;;;;;;;3.10;1.90;;;18.40;99.90;;;;;;5018874;28;20452;-80
2022/05/17 04:02:08;;;;;;;1.97;1.80;;;18.40;99.90;;;;;;5011908;28;20480;-80
2022/05/17 04:04:36;;;;;;;2.00;1.80;;;18.40;99.90;;;;;;5018813;28;20464;-79
2022/05/17 04:07:04;;;;;;;2.77;1.93;;;18.40;99.90;;;;;;5015133;28;20499;-79
2022/05/17 04:09:34;;;;;;;3.97;2.43;;;18.40;99.90;;;;;;5020532;28;20513;-80
2022/05/17 04:12:03;;;;;;;2.90;1.77;;;18.40;99.90;;;;;;5018398;28;20445;-80
2022/05/17 04:14:31;;;;;;;3.23;1.80;;;18.40;99.90;;;;;;5025701;28;20447;-79
2022/05/17 04:16:59;;;;;;;2.97;2.10;;;18.40;99.90;;;;;;5022397;28;20491;-79
2022/05/17 04:19:28;;;;;;;1.80;1.57;;;18.40;99.90;;;;;;5021139;28;20791;-79
2022/05/17 04:21:58;;;;;;;2.27;1.73;;;18.30;99.90;;;;;;5016267;28;20518;-79
2022/05/17 04:24:26;;;;;;;2.80;1.60;;;18.30;99.90;;;;;;5017566;28;20952;-79
2022/05/17 04:26:56;;;;;;;1.80;1.70;;;18.30;99.90;;;;;;5026013;28;20462;-80
2022/05/17 04:29:25;;;;;;;4.40;4.00;;;18.30;99.90;;;;;;5015313;28;20461;-78
2022/05/17 04:31:53;;;;;;;10.13;9.23;;;18.30;99.90;;;;;;5018020;28;20988;-81
2022/05/17 04:34:21;;;;;;;5.80;5.30;;;18.30;99.90;;;;;;5015828;28;20448;-81
2022/05/17 04:36:49;;;;;;;3.77;3.20;;;18.20;99.90;;;;;;5024314;28;20494;-74
2022/05/17 04:39:18;;;;;;;2.93;2.67;;;18.20;99.90;;;;;;5020492;28;20453;-73
2022/05/17 04:41:46;;;;;;;4.07;2.20;;;18.20;99.90;;;;;;5019750;28;20476;-74
2022/05/17 04:44:15;;;;;;;3.60;2.40;;;18.20;99.90;;;;;;5015778;28;20857;-74
2022/05/17 04:46:43;;;;;;;3.00;2.10;;;18.20;99.90;;;;;;5021230;28;20483;-73
2022/05/17 04:49:11;;;;;;;3.80;2.00;;;18.20;99.90;;;;;;5017857;28;20519;-80
2022/05/17 04:51:40;;;;;;;1.90;1.60;;;18.20;99.90;;;;;;5016031;28;20449;-80
2022/05/17 04:54:08;;;;;;;2.40;2.20;;;18.30;99.90;;;;;;5016095;28;20514;-81
2022/05/17 04:56:36;;;;;;;2.53;2.27;;;18.40;99.90;;;;;;5021760;28;20994;-80
2022/05/17 04:59:04;;;;;;;3.80;2.33;;;18.50;99.90;;;;;;5022097;28;20996;-80
2022/05/17 05:01:34;;;;;;;2.97;2.03;;;18.50;99.90;;;;;;5017548;28;21200;-80
2022/05/17 05:04:03;;;;;;;2.70;2.10;;;18.60;99.90;;;;;;5018055;28;20462;-80
2022/05/17 05:06:31;;;;;;;2.73;2.13;;;18.60;99.90;;;;;;5018838;28;20469;-80
2022/05/17 05:09:00;;;;;;;2.30;2.07;;;18.60;99.90;;;;;;5019419;28;20463;-80
2022/05/17 05:11:28;;;;;;;3.07;2.50;;;18.60;99.90;;;;;;5014342;28;20543;-80
2022/05/17 05:13:56;;;;;;;5.03;2.53;;;18.60;99.90;;;;;;5017295;28;20453;-80
2022/05/17 05:16:24;;;;;;;3.80;2.50;;;18.70;99.90;;;;;;5016630;28;20468;-80
2022/05/17 05:18:54;;;;;;;5.90;2.57;;;18.70;99.90;;;;;;5016739;28;20456;-80
2022/05/17 05:21:22;;;;;;;3.83;2.37;;;18.70;99.90;;;;;;5018461;28;20484;-80
2022/05/17 05:23:50;;;;;;;4.70;3.83;;;18.70;99.90;;;;;;5025781;28;20471;-79
2022/05/17 05:26:19;;;;;;;1.90;1.80;;;18.80;99.90;;;;;;5025891;28;20476;-81
2022/05/17 05:28:47;;;;;;;3.22;2.45;;;18.80;99.90;;;;;;5017039;28;20455;-81
2022/05/17 05:31:17;;;;;;;4.90;2.20;;;18.90;99.90;;;;;;5022865;28;20473;-81
2022/05/17 05:33:45;;;;;;;2.60;2.40;;;18.90;99.90;;;;;;5023743;28;21298;-80
2022/05/17 05:36:15;;;;;;;2.43;2.23;;;19.00;99.90;;;;;;5023491;28;20476;-80
2022/05/17 05:38:43;;;;;;;2.43;1.80;;;19.10;99.90;;;;;;5029011;28;20487;-80
2022/05/17 05:41:12;;;;;;;2.57;2.37;;;19.10;99.90;;;;;;5026646;28;20472;-81
2022/05/17 05:43:41;;;;;;;2.30;2.10;;;19.20;99.90;;;;;;5028913;28;20453;-80
2022/05/17 05:46:09;;;;;;;3.50;3.20;;;19.20;99.90;;;;;;5021230;28;20480;-81
2022/05/17 05:48:38;;;;;;;4.67;2.30;;;19.30;99.90;;;;;;5025128;28;20952;-81
2022/05/17 05:51:06;;;;;;;2.17;2.03;;;19.30;99.90;;;;;;5026933;28;20456;-80
2022/05/17 05:53:35;;;;;;;2.50;2.30;;;19.40;99.90;;;;;;5026916;28;20452;-80
2022/05/17 05:56:05;;;;;;;2.50;2.30;;;19.50;99.90;;;;;;5022428;28;20543;-80
2022/05/17 05:58:36;;;;;;;4.53;2.63;;;19.50;99.90;;;;;;5029816;28;20510;-80
2022/05/17 06:01:04;;;;;;;3.83;2.07;;;19.50;99.90;;;;;;5025230;28;20457;-79
2022/05/17 06:03:33;;;;;;;3.00;2.70;;;19.50;99.90;;;;;;5020888;28;20460;-80
2022/05/17 06:06:01;;;;;;;2.60;2.40;;;19.60;99.90;;;;;;5029245;28;20483;-81
2022/05/17 06:08:30;;;;;;;4.23;2.60;;;19.70;99.90;;;;;;5024346;28;20996;-80
2022/05/17 06:11:01;;;;;;;3.13;2.83;;;19.70;99.90;;;;;;5028288;28;20464;-80
2022/05/17 06:13:29;;;;;;;2.87;2.67;;;19.80;99.90;;;;;;5030691;28;20452;-80
2022/05/17 06:15:58;;;;;;;2.77;2.57;;;19.80;99.90;;;;;;5029119;28;20522;-80
2022/05/17 06:18:26;;;;;;;3.80;2.60;;;19.90;99.90;;;;;;5030302;28;20514;-81
2022/05/17 06:20:56;;;;;;;2.40;2.20;;;19.90;99.90;;;;;;5029884;28;20962;-84
2022/05/17 06:23:25;;;;;;;3.33;2.63;;;20.00;99.90;;;;;;5022645;28;21178;-82
2022/05/17 06:25:54;;;;;;;2.77;2.50;;;20.00;99.90;;;;;;5028118;28;20484;-83
2022/05/17 06:28:24;;;;;;;3.20;2.80;;;20.10;99.90;;;;;;5030977;28;20479;-82
2022/05/17 06:30:52;;;;;;;3.30;2.30;;;20.10;99.90;;;;;;5019504;28;20470;-83
2022/05/17 06:33:21;;;;;;;2.70;2.50;;;20.10;99.90;;;;;;5022099;28;20518;-82
2022/05/17 06:35:50;;;;;;;4.53;3.20;;;20.20;99.90;;;;;;5029411;28;20469;-82
2022/05/17 06:38:18;;;;;;;3.23;2.00;;;20.30;99.90;;;;;;5031337;28;21055;-82
2022/05/17 06:40:46;;;;;;;4.33;2.93;;;20.40;99.90;;;;;;5025204;28;20468;-81
2022/05/17 06:43:15;;;;;;;3.47;3.10;;;20.50;99.90;;;;;;5024173;28;20472;-82
2022/05/17 06:45:45;;;;;;;4.47;2.30;;;20.70;99.90;;;;;;5032843;28;21086;-82
2022/05/17 06:48:13;;;;;;;2.87;2.60;;;20.80;99.90;;;;;;5033406;28;21204;-82
2022/05/17 06:50:42;;;;;;;4.10;2.83;;;20.90;99.90;;;;;;5026598;28;20444;-83
2022/05/17 06:53:10;;;;;;;4.07;2.63;;;21.10;99.90;;;;;;5027325;28;20457;-82
2022/05/17 06:55:39;;;;;;;3.00;2.50;;;21.20;99.90;;;;;;5026526;28;20508;-81
2022/05/17 06:58:08;;;;;;;4.53;2.80;;;21.30;99.90;;;;;;5027517;28;20444;-81
2022/05/17 07:00:36;;;;;;;3.50;2.87;;;21.50;99.90;;;;;;5027487;28;20457;-81
2022/05/17 07:03:06;;;;;;;4.10;3.43;;;21.60;99.90;;;;;;5030537;28;20483;-82
2022/05/17 07:05:35;;;;;;;2.90;2.53;;;21.70;99.90;;;;;;5027302;28;20476;-82
2022/05/17 07:08:05;;;;;;;3.30;2.93;;;21.80;99.90;;;;;;5019338;28;20571;-82
2022/05/17 07:13:19;;;;;;;4.80;3.30;;;22.10;99.90;;;;;;5022904;28;20459;-82
2022/05/17 07:15:49;;;;;;;4.70;2.60;;;22.10;99.90;;;;;;5028013;28;20511;-82
2022/05/17 07:18:21;;;;;;;4.23;2.90;;;22.10;99.90;;;;;;5038725;28;20594;-82
2022/05/17 07:20:50;;;;;;;5.23;2.90;;;22.20;99.90;;;;;;5029973;28;20470;-82
2022/05/17 07:23:19;;;;;;;4.10;2.80;;;22.20;99.90;;;;;;5023694;28;20480;-81
2022/05/17 07:25:47;;;;;;;3.73;2.37;;;22.20;99.90;;;;;;5023363;28;20475;-82
2022/05/17 07:28:18;;;;;;;3.20;2.40;;;22.20;99.90;;;;;;5023847;28;20475;-82
2022/05/17 07:30:47;;;;;;;2.37;2.20;;;22.30;99.90;;;;;;5022210;28;20448;-80
2022/05/17 07:33:16;;;;;;;3.67;2.20;;;22.30;99.90;;;;;;5034056;28;20448;-83
2022/05/17 07:35:45;;;;;;;5.57;2.30;;;22.40;99.90;;;;;;5027958;28;20476;-83
2022/05/17 07:38:14;;;;;;;3.60;3.33;;;22.30;99.90;;;;;;5031625;28;20544;-81
2022/05/17 07:40:43;;;;;;;3.50;2.70;;;22.30;99.90;;;;;;5036366;28;20463;-82
2022/05/17 07:43:11;;;;;;;3.77;3.20;;;22.40;99.90;;;;;;5030392;28;20485;-82
2022/05/17 07:45:40;;;;;;;2.87;2.63;;;22.30;99.90;;;;;;5025750;28;20575;-82
2022/05/17 07:48:09;;;;;;;5.60;3.07;;;22.30;99.90;;;;;;5028246;28;20503;-82
2022/05/17 07:50:37;;;;;;;2.70;2.50;;;22.30;99.90;;;;;;5022895;28;20457;-82
2022/05/17 07:53:07;;;;;;;3.03;2.37;;;22.40;99.90;;;;;;5029255;28;20487;-81
2022/05/17 07:55:37;;;;;;;2.67;2.47;;;22.40;99.90;;;;;;5032465;28;20486;-82
2022/05/17 07:58:06;;;;;;;3.03;2.73;;;22.30;99.90;;;;;;5028069;28;20562;-81
2022/05/17 08:00:35;;;;;;;3.40;2.47;;;22.40;99.90;;;;;;5026957;28;20897;-82
2022/05/17 08:03:04;;;;;;;2.90;2.70;;;22.40;99.90;;;;;;5022655;28;20480;-81
2022/05/17 08:05:33;;;;;;;3.10;2.80;;;22.40;99.90;;;;;;5028874;28;20522;-82
2022/05/17 08:08:02;;;;;;;3.60;2.53;;;22.40;99.90;;;;;;5029165;28;20452;-81
2022/05/17 08:10:31;;;;;;;2.60;2.50;;;22.40;99.90;;;;;;5025069;28;20468;-82
2022/05/17 08:13:00;;;;;;;2.60;2.10;;;22.50;99.90;;;;;;5030844;28;20905;-81
2022/05/17 08:15:30;;;;;;;2.67;2.47;;;22.60;99.90;;;;;;5027029;28;20475;-81
2022/05/17 08:18:01;;;;;;;2.30;2.10;;;22.60;99.90;;;;;;5026843;28;20462;-80
2022/05/17 08:20:30;;;;;;;2.40;2.20;;;22.70;99.90;;;;;;5026656;28;20453;-82
2022/05/17 08:22:59;;;;;;;2.53;2.30;;;22.60;99.90;;;;;;5029785;28;20488;-81
2022/05/17 08:28:14;;;;;;;2.70;2.17;;;22.60;99.90;;;;;;5031651;28;20456;-82
2022/05/17 08:30:43;;;;;;;2.80;2.60;;;22.60;99.90;;;;;;5026409;28;20465;-81
2022/05/17 08:33:16;;;;;;;2.37;2.13;;;22.60;99.90;;;;;;5028946;28;20452;-82
2022/05/17 08:35:48;;;;;;;2.10;1.90;;;22.70;99.90;;;;;;5030354;28;20500;-81
2022/05/17 08:38:20;;;;;;;3.53;1.93;;;22.80;99.90;;;;;;5030939;28;20456;-82
2022/05/17 08:40:58;;;;;;;3.30;2.40;;;22.80;99.90;;;;;;5025946;28;20552;-80
2022/05/17 08:43:30;;;;;;;2.37;2.00;;;22.80;99.90;;;;;;5028733;28;20484;-81
2022/05/17 08:46:14;;;;;;;4.33;2.70;;;22.90;99.90;;;;;;5025132;28;20495;-81
2022/05/17 08:48:49;;;;;;;3.00;1.83;;;23.00;99.90;;;;;;5028644;28;20458;-81
2022/05/17 08:51:26;;;;;;;3.07;2.33;;;23.00;99.90;;;;;;5029267;28;20463;-82
2022/05/17 08:53:55;;;;;;;3.30;2.17;;;23.00;99.90;;;;;;5024682;28;20445;-80
2022/05/17 08:56:23;;;;;;;3.07;1.77;;;23.10;99.90;;;;;;5020630;28;20482;-81
2022/05/17 08:58:56;;;;;;;2.50;2.30;;;23.10;99.90;;;;;;5035650;28;20449;-82
2022/05/17 09:01:29;;;;;;;5.90;2.77;;;23.20;99.90;;;;;;5034855;28;20456;-82
2022/05/17 09:04:10;;;;;;;2.73;2.53;;;23.20;99.90;;;;;;5020432;28;20473;-81
2022/05/17 09:06:47;;;;;;;2.00;1.83;;;23.20;99.90;;;;;;5035347;28;20472;-81
2022/05/17 09:09:23;;;;;;;3.90;2.43;;;23.20;99.90;;;;;;5030104;28;20452;-81
2022/05/17 09:11:57;;;;;;;1.87;1.70;;;23.20;99.90;;;;;;5025935;28;20475;-81
2022/05/17 09:14:31;;;;;;;2.20;2.00;;;23.20;99.90;;;;;;5027075;28;20440;-80
2022/05/17 09:17:04;;;;;;;2.30;1.90;;;23.20;99.90;;;;;;5023275;28;20484;-80
2022/05/17 09:19:32;;;;;;;2.13;1.90;;;23.40;99.90;;;;;;5027762;28;20470;-81
2022/05/17 09:22:01;;;;;;;2.80;2.03;;;23.40;99.90;;;;;;5028273;28;20461;-82
2022/05/17 09:24:33;;;;;;;2.43;2.23;;;23.40;99.90;;;;;;5020871;28;20492;-81
2022/05/17 09:27:05;;;;;;;2.53;1.70;;;23.40;99.90;;;;;;5030744;28;20481;-82
2022/05/17 09:29:39;;;;;;;2.70;1.93;;;23.60;99.90;;;;;;5024486;28;20464;-80
2022/05/17 09:32:11;;;;;;;2.40;2.30;;;23.60;99.90;;;;;;5020652;28;20461;-80
2022/05/17 09:34:41;;;;;;;2.37;1.87;;;23.60;99.90;;;;;;5027707;28;20483;-81
2022/05/17 09:37:14;;;;;;;3.80;1.70;;;23.70;99.90;;;;;;5029183;28;20483;-82
2022/05/17 09:39:46;;;;;;;2.43;2.23;;;23.80;99.90;;;;;;5021761;28;20964;-82
2022/05/17 09:42:26;;;;;;;2.07;1.97;;;23.80;99.90;;;;;;5035335;28;21029;-81
2022/05/17 09:44:56;;;;;;;2.87;1.77;;;23.90;99.90;;;;;;5021318;28;21055;-81
2022/05/17 09:47:29;;;;;;;2.57;1.80;;;23.90;99.90;;;;;;5019602;28;20467;-82
2022/05/17 09:53:03;;;;;;;2.50;2.30;;;23.90;99.90;;;;;;5026579;28;20459;-81
2022/05/17 09:55:32;;;;;;;2.30;1.97;;;24.00;99.90;;;;;;5021914;28;20473;-82
2022/05/17 09:58:04;;;;;;;1.97;1.87;;;24.00;99.90;;;;;;5027611;28;20457;-82
2022/05/17 10:00:41;;;;;;;2.43;2.27;;;24.10;99.90;;;;;;5018576;28;20457;-81
2022/05/17 10:03:34;;;;;;;2.47;2.27;;;24.10;99.90;;;;;;5023229;28;20457;-81
2022/05/17 10:06:05;;;;;;;1.97;1.77;;;24.10;99.90;;;;;;5028232;28;20488;-82
2022/05/17 10:08:38;;;;;;;1.80;1.70;;;24.10;99.90;;;;;;5037139;28;20984;-84
2022/05/17 10:11:18;;;;;;;2.30;2.10;;;24.20;99.90;;;;;;5030725;28;20447;-81
2022/05/17 10:13:59;;;;;;;3.27;2.37;;;24.20;99.90;;;;;;5020996;28;20465;-81
2022/05/17 10:16:37;;;;;;;2.30;2.10;;;24.20;99.90;;;;;;5024256;28;21024;-81
2022/05/17 10:19:10;;;;;;;2.00;1.80;;;24.30;99.90;;;;;;5019081;28;20805;-81
2022/05/17 10:21:44;;;;;;;2.53;1.97;;;24.20;99.90;;;;;;5014194;28;20453;-81
2022/05/17 10:24:19;;;;;;;2.03;1.93;;;24.20;99.90;;;;;;5014315;28;20574;-81
2022/05/17 10:26:52;;;;;;;2.57;2.10;;;24.20;99.90;;;;;;5015669;28;20473;-82
2022/05/17 10:29:29;;;;;;;2.83;2.10;;;24.20;99.90;;;;;;5019286;28;20456;-81
2022/05/17 10:32:06;;;;;;;2.53;1.90;;;24.20;99.90;;;;;;5022106;28;20464;-81
2022/05/17 10:34:58;;;;;;;4.40;1.90;;;24.20;99.90;;;;;;5018879;28;20518;-81
2022/05/17 10:37:32;;;;;;;2.67;1.67;;;24.20;99.90;;;;;;5026855;28;20456;-81
2022/05/17 10:40:06;;;;;;;2.50;1.77;;;24.10;99.90;;;;;;5020748;28;20457;-80
2022/05/17 10:42:35;;;;;;;1.63;1.53;;;24.10;99.90;;;;;;5021262;28;20573;-82
2022/05/17 10:45:06;;;;;;;1.70;1.43;;;24.10;99.90;;;;;;5022999;28;20499;-80
2022/05/17 10:47:47;;;;;;;4.00;2.10;;;24.20;99.90;;;;;;5014996;28;20526;-81
2022/05/17 10:50:28;;;;;;;1.80;1.67;;;24.20;99.90;;;;;;5028247;28;20453;-81
2022/05/17 10:53:15;;;;;;;1.60;1.50;;;24.20;99.90;;;;;;5019214;28;20557;-80
2022/05/17 10:55:52;;;;;;;1.67;1.50;;;24.30;99.90;;;;;;5012819;28;20480;-81
2022/05/17 10:58:31;;;;;;;1.50;1.40;;;24.40;99.90;;;;;;5022901;28;20452;-80
2022/05/17 11:01:17;;;;;;;2.10;2.00;;;24.50;99.90;;;;;;5018838;28;20458;-81
2022/05/17 11:04:11;;;;;;;3.57;1.47;;;24.50;99.90;;;;;;5019061;28;20539;-81
2022/05/17 11:06:47;;;;;;;2.23;2.03;;;24.50;99.90;;;;;;5025070;28;20547;-81
2022/05/17 11:09:24;;;;;;;1.73;1.63;;;24.50;99.90;;;;;;5018075;28;20456;-81
2022/05/17 11:12:04;;;;;;;2.30;2.10;;;24.50;99.90;;;;;;5014669;28;20591;-82
2022/05/17 11:14:38;;;;;;;1.77;1.60;;;24.50;99.90;;;;;;5025597;28;20463;-80
2022/05/17 11:17:16;;;;;;;3.20;1.70;;;24.50;99.90;;;;;;5015398;28;20482;-81
2022/05/17 11:19:52;;;;;;;1.87;1.70;;;24.50;99.90;;;;;;5016370;28;20457;-81
2022/05/17 11:22:34;;;;;;;1.60;1.43;;;24.50;99.90;;;;;;5016937;28;20490;-82
2022/05/17 11:25:36;;;;;;;1.53;1.40;;;24.50;99.90;;;;;;5018403;28;20481;-81
2022/05/17 11:28:21;;;;;;;2.60;1.80;;;24.60;99.90;;;;;;5020210;28;20555;-81
2022/05/17 11:30:54;;;;;;;1.57;1.40;;;24.60;99.90;;;;;;5017965;28;20478;-81
2022/05/17 11:33:43;;;;;;;1.93;1.60;;;24.60;99.90;;;;;;5011693;28;20468;-81
2022/05/17 11:36:45;;;;;;;1.77;1.50;;;24.70;99.90;;;;;;5022605;28;21026;-81
2022/05/17 11:39:48;;;;;;;5.90;1.80;;;24.80;99.90;;;;;;5028691;28;20456;-81
2022/05/17 11:42:32;;;;;;;2.40;2.30;;;24.90;99.90;;;;;;5019734;28;20448;-82
2022/05/17 11:45:20;;;;;;;1.73;1.63;;;24.90;99.90;;;;;;5019066;28;20484;-80
2022/05/17 11:47:55;;;;;;;1.70;1.60;;;24.90;99.90;;;;;;5022398;28;20971;-81
2022/05/17 11:50:43;;;;;;;1.60;1.50;;;24.90;99.90;;;;;;5032089;28;20448;-81
2022/05/17 11:53:41;;;;;;;2.33;1.63;;;24.90;99.90;;;;;;5024101;28;20802;-82
2022/05/17 11:56:16;;;;;;;2.07;1.50;;;25.10;99.90;;;;;;5019831;28;20480;-81
2022/05/17 11:58:46;;;;;;;1.53;1.40;;;25.10;99.90;;;;;;5018154;28;20948;-81
2022/05/17 12:01:46;;;;;;;1.30;1.20;;;25.10;99.90;;;;;;5022103;28;21227;-81
2022/05/17 12:04:37;;;;;;;1.87;1.37;;;25.10;99.90;;;;;;5015288;28;20479;-81
2022/05/17 12:07:28;;;;;;;1.47;1.37;;;25.20;99.90;;;;;;5018090;28;21062;-81
2022/05/17 12:10:09;;;;;;;2.60;1.20;;;25.20;99.90;;;;;;5021808;28;20545;-80
2022/05/17 12:12:57;;;;;;;2.07;1.53;;;25.20;99.90;;;;;;5024529;28;21022;-81
2022/05/17 12:15:51;;;;;;;1.30;1.20;;;25.20;99.90;;;;;;5021031;28;20477;-80
2022/05/17 12:18:47;;;;;;;1.43;1.30;;;25.20;99.90;;;;;;5018859;28;20461;-81
2022/05/17 12:21:31;;;;;;;3.70;1.53;;;25.20;99.90;;;;;;5014971;28;20465;-81
2022/05/17 12:24:07;;;;;;;1.50;1.40;;;25.20;99.90;;;;;;5021149;28;20457;-81
2022/05/17 12:26:52;;;;;;;1.60;1.07;;;25.10;99.90;;;;;;5026887;28;20550;-81
2022/05/17 12:32:11;;;;;;;1.23;1.13;;;25.10;99.90;;;;;;5023982;28;20764;-82
2022/05/17 12:34:39;;;;;;;1.87;1.30;;;25.00;99.90;;;;;;5022819;28;21152;-82
2022/05/17 12:37:10;;;;;;;2.55;1.60;;;25.00;99.90;;;;;;5029947;28;20488;-82
2022/05/17 12:45:17;;;;;;;2.50;1.17;;;25.00;99.90;;;;;;5024101;28;21093;-81
2022/05/17 12:47:50;;;;;;;1.70;1.60;;;25.00;99.90;;;;;;5028059;28;20456;-82
2022/05/17 12:50:24;;;;;;;1.40;1.30;;;25.00;99.90;;;;;;5028399;28;20753;-82
2022/05/17 12:52:54;;;;;;;1.60;1.20;;;25.00;99.90;;;;;;5025080;28;20453;-82
2022/05/17 12:55:25;;;;;;;1.60;1.20;;;25.00;99.90;;;;;;5021322;28;20567;-82
2022/05/17 12:57:56;;;;;;;1.80;1.23;;;25.00;99.90;;;;;;5022472;28;20460;-81
2022/05/17 13:00:29;;;;;;;1.40;1.30;;;25.10;99.90;;;;;;5024643;28;20456;-81
2022/05/17 13:03:01;;;;;;;1.43;1.30;;;25.20;99.90;;;;;;5022883;28;20465;-81
2022/05/17 13:05:33;;;;;;;1.50;1.40;;;25.20;99.90;;;;;;5023931;28;20519;-81
2022/05/17 13:08:06;;;;;;;1.60;1.50;;;25.20;99.90;;;;;;5022765;28;20441;-81
2022/05/17 13:10:36;;;;;;;1.87;1.33;;;25.20;99.90;;;;;;5019799;28;20460;-81
2022/05/17 13:13:18;;;;;;;1.53;1.40;;;25.20;99.90;;;;;;5033411;28;20495;-80
2022/05/17 13:15:48;;;;;;;1.50;1.40;;;25.20;99.90;;;;;;5025992;28;20472;-81
2022/05/17 13:18:18;;;;;;;1.20;1.10;;;25.10;99.90;;;;;;5021445;28;20452;-81
2022/05/17 13:20:49;;;;;;;1.17;1.07;;;25.20;99.90;;;;;;5027393;28;20547;-80
2022/05/17 13:23:22;;;;;;;1.83;1.40;;;25.20;99.90;;;;;;5027032;28;20499;-81
2022/05/17 13:25:51;;;;;;;1.30;1.20;;;25.30;99.90;;;;;;5025086;28;20568;-82
2022/05/17 13:28:31;;;;;;;1.30;1.20;;;25.30;99.90;;;;;;5026946;28;20473;-82